Time;durP1;ratioP1;P1;durP2;ratioP2;P2;SDS_P1;SDS_P2;PMS_P1;PMS_P2;Temp;Humidity;BMP_temperature;BMP_pressure;BME280_temperature;BME280_humidity;BME280_pressure;Samples;Min_cycle;Max_cycle;Signal;HPM_P1;HPM_P2
2022/03/05 00:02:09;;;;;;;65.18;43.45;;;4.90;99.90;;;;;;5075041;28;20451;-52
2022/03/05 00:04:35;;;;;;;64.88;43.40;;;4.80;99.90;;;;;;5074890;28;20031;-48
2022/03/05 00:07:00;;;;;;;65.20;44.22;;;4.90;99.90;;;;;;5074845;28;20064;-49
2022/03/05 00:09:26;;;;;;;61.67;42.05;;;4.90;99.90;;;;;;5074118;28;20128;-53
2022/03/05 00:11:52;;;;;;;70.32;45.03;;;4.80;99.90;;;;;;5075547;28;20020;-51
2022/03/05 00:14:18;;;;;;;66.45;44.17;;;4.90;99.90;;;;;;5075332;28;20043;-55
2022/03/05 00:16:43;;;;;;;69.85;44.10;;;4.90;99.90;;;;;;5075836;28;20028;-57
2022/03/05 00:19:10;;;;;;;63.97;42.72;;;4.90;99.90;;;;;;5075726;28;20036;-53
2022/03/05 00:21:36;;;;;;;70.05;45.17;;;4.90;99.90;;;;;;5072742;28;20484;-50
2022/03/05 00:24:01;;;;;;;64.10;43.38;;;4.80;99.90;;;;;;5074538;28;20049;-51
2022/03/05 00:26:27;;;;;;;68.35;46.15;;;4.60;99.90;;;;;;5074663;28;20020;-50
2022/03/05 00:28:53;;;;;;;71.35;46.72;;;4.60;99.90;;;;;;5089668;28;20039;-52
2022/03/05 00:31:19;;;;;;;68.88;47.38;;;4.80;99.90;;;;;;5074349;28;20033;-50
2022/03/05 00:33:45;;;;;;;71.85;47.30;;;4.90;99.90;;;;;;5074376;28;20031;-49
2022/03/05 00:36:11;;;;;;;68.95;47.22;;;5.00;99.90;;;;;;5074373;28;20036;-48
2022/03/05 00:38:36;;;;;;;72.90;47.33;;;5.00;99.90;;;;;;5072455;28;20424;-49
2022/03/05 00:41:02;;;;;;;72.20;48.45;;;5.10;99.90;;;;;;5072344;28;20075;-51
2022/03/05 00:43:28;;;;;;;74.93;46.95;;;5.10;99.90;;;;;;5074146;28;20078;-49
2022/03/05 00:45:54;;;;;;;66.43;47.60;;;5.10;99.90;;;;;;5074107;28;20078;-49
2022/03/05 00:48:19;;;;;;;74.95;48.58;;;5.20;99.90;;;;;;5074177;28;20051;-49
2022/03/05 00:50:45;;;;;;;77.07;53.35;;;5.30;99.90;;;;;;5074194;28;20054;-49
2022/03/05 00:53:12;;;;;;;73.43;48.30;;;5.30;99.90;;;;;;5074008;28;20032;-48
2022/03/05 00:55:38;;;;;;;72.82;46.08;;;5.30;99.90;;;;;;5072009;28;20078;-51
2022/03/05 00:58:04;;;;;;;70.25;45.75;;;5.30;99.90;;;;;;5073691;28;20080;-50
2022/03/05 01:00:30;;;;;;;66.32;45.97;;;5.40;99.90;;;;;;5073783;28;20499;-52
2022/03/05 01:02:56;;;;;;;63.05;43.72;;;5.40;99.90;;;;;;5038607;28;20041;-49
2022/03/05 01:05:21;;;;;;;67.53;45.50;;;5.40;99.90;;;;;;5073641;28;20361;-50
2022/03/05 01:07:47;;;;;;;67.72;45.35;;;5.40;99.90;;;;;;5071852;28;20060;-51
2022/03/05 01:10:13;;;;;;;64.75;43.28;;;5.40;99.90;;;;;;5073472;28;20020;-50
2022/03/05 01:12:39;;;;;;;61.58;41.08;;;5.40;99.90;;;;;;5038754;28;20137;-48
2022/03/05 01:15:06;;;;;;;65.35;43.97;;;5.40;99.90;;;;;;5088736;28;20045;-50
2022/03/05 01:17:31;;;;;;;55.72;40.78;;;5.40;99.90;;;;;;5073731;28;20066;-49
2022/03/05 01:19:57;;;;;;;64.35;42.63;;;5.40;99.90;;;;;;5088628;28;20029;-50
2022/03/05 01:22:23;;;;;;;64.78;40.70;;;5.40;99.90;;;;;;5037987;28;20040;-48
2022/03/05 01:24:49;;;;;;;59.03;40.60;;;5.40;99.90;;;;;;5073030;28;20032;-49
2022/03/05 01:27:14;;;;;;;60.38;42.53;;;5.40;99.90;;;;;;5073548;28;20430;-48
2022/03/05 01:29:40;;;;;;;55.53;40.88;;;5.50;99.90;;;;;;5071706;28;20032;-48
2022/03/05 01:32:06;;;;;;;52.67;37.85;;;5.50;99.90;;;;;;5073517;28;20391;-50
2022/03/05 01:34:32;;;;;;;50.85;37.15;;;5.50;99.90;;;;;;5073333;28;20020;-50
2022/03/05 01:36:58;;;;;;;52.85;38.58;;;5.50;99.90;;;;;;5088699;28;20381;-49
2022/03/05 01:39:24;;;;;;;53.97;37.45;;;5.50;99.90;;;;;;5073135;28;20059;-53
2022/03/05 01:41:51;;;;;;;55.90;39.10;;;5.50;99.90;;;;;;5088397;28;20473;-50
2022/03/05 01:44:20;;;;;;;50.53;37.30;;;5.50;99.90;;;;;;5073335;28;20036;-49
2022/03/05 01:46:45;;;;;;;55.03;40.72;;;5.50;99.90;;;;;;5073201;28;20441;-53
2022/03/05 01:49:12;;;;;;;59.25;40.20;;;5.40;99.90;;;;;;5073188;28;20036;-48
2022/03/05 01:51:39;;;;;;;58.78;39.35;;;5.40;99.90;;;;;;5088355;28;20071;-52
2022/03/05 01:54:06;;;;;;;57.45;40.55;;;5.40;99.90;;;;;;5073282;28;20383;-51
2022/03/05 01:56:32;;;;;;;57.78;39.50;;;5.30;99.90;;;;;;5088067;28;20047;-49
2022/03/05 01:58:59;;;;;;;56.45;40.17;;;5.10;99.90;;;;;;5073135;28;20036;-49
2022/03/05 02:01:26;;;;;;;62.28;42.78;;;5.20;99.90;;;;;;5073073;28;20028;-48
2022/03/05 02:03:52;;;;;;;72.32;50.15;;;5.00;99.90;;;;;;5073265;28;20087;-50
2022/03/05 02:06:20;;;;;;;72.20;48.50;;;5.10;99.90;;;;;;5073067;28;20024;-49
2022/03/05 02:08:45;;;;;;;73.72;48.25;;;5.10;99.90;;;;;;5073060;28;20502;-49
2022/03/05 02:11:11;;;;;;;79.18;50.38;;;5.10;99.90;;;;;;5073051;28;20119;-48
2022/03/05 02:13:37;;;;;;;92.00;54.65;;;4.90;99.90;;;;;;5072944;28;20064;-50
2022/03/05 02:16:04;;;;;;;85.22;54.13;;;4.60;99.90;;;;;;5072862;28;20043;-49
2022/03/05 02:18:29;;;;;;;81.43;51.28;;;4.50;99.90;;;;;;5072847;28;20029;-51
2022/03/05 02:20:56;;;;;;;74.15;46.47;;;4.50;99.90;;;;;;5088175;28;20039;-49
2022/03/05 02:23:22;;;;;;;68.10;42.88;;;4.40;99.90;;;;;;5088085;28;20043;-51
2022/03/05 02:25:56;;;;;;;67.30;42.38;;;4.50;99.90;;;;;;5072870;28;20024;-49
2022/03/05 02:28:23;;;;;;;70.47;42.15;;;4.60;99.90;;;;;;5072771;28;20082;-51
2022/03/05 02:30:50;;;;;;;75.22;45.63;;;4.80;99.90;;;;;;5072884;28;20036;-48
2022/03/05 02:33:16;;;;;;;125.68;70.72;;;4.90;99.90;;;;;;5072881;28;20392;-52
2022/03/05 02:35:43;;;;;;;72.15;44.28;;;4.90;99.90;;;;;;5075683;28;20481;-48
2022/03/05 02:38:14;;;;;;;60.03;38.30;;;5.00;99.90;;;;;;5076394;28;20029;-51
2022/03/05 02:40:42;;;;;;;59.28;35.42;;;5.00;99.90;;;;;;5076347;28;20029;-50
2022/03/05 02:43:08;;;;;;;49.70;32.80;;;4.90;99.90;;;;;;5076439;28;20028;-53
2022/03/05 02:45:35;;;;;;;49.25;32.45;;;4.70;99.90;;;;;;5076603;28;20452;-50
2022/03/05 02:48:02;;;;;;;49.80;31.88;;;4.50;99.90;;;;;;5091619;28;20036;-51
2022/03/05 02:50:29;;;;;;;51.55;30.42;;;4.40;99.90;;;;;;5076255;28;20029;-52
2022/03/05 02:52:55;;;;;;;48.55;32.25;;;4.30;99.90;;;;;;5076300;28;20115;-49
2022/03/05 02:55:21;;;;;;;51.95;31.42;;;4.30;99.90;;;;;;5076197;28;20025;-50
2022/03/05 02:57:47;;;;;;;50.10;31.55;;;4.40;99.90;;;;;;5076512;28;20059;-48
2022/03/05 03:00:13;;;;;;;47.38;31.75;;;4.40;99.90;;;;;;5076099;28;20048;-50
2022/03/05 03:02:39;;;;;;;69.88;45.03;;;4.60;99.90;;;;;;5075947;28;20097;-50
2022/03/05 03:05:06;;;;;;;54.97;34.13;;;4.70;99.90;;;;;;5076364;28;20108;-50
2022/03/05 03:07:31;;;;;;;54.90;34.83;;;4.80;99.90;;;;;;5076170;28;20467;-49
2022/03/05 03:09:58;;;;;;;55.53;35.88;;;5.00;99.90;;;;;;5076011;28;20021;-47
2022/03/05 03:12:27;;;;;;;56.65;32.90;;;5.00;99.90;;;;;;5075930;28;20036;-48
2022/03/05 03:14:53;;;;;;;50.40;31.85;;;5.10;99.90;;;;;;5091088;28;20040;-49
2022/03/05 03:17:18;;;;;;;49.67;32.55;;;5.10;99.90;;;;;;5076127;28;20349;-51
2022/03/05 03:19:44;;;;;;;51.20;33.03;;;5.10;99.90;;;;;;5023983;28;20449;-49
2022/03/05 03:22:10;;;;;;;53.42;33.40;;;5.10;99.90;;;;;;5075912;28;20029;-52
2022/03/05 03:24:36;;;;;;;49.75;31.90;;;5.20;99.90;;;;;;5075971;28;20388;-49
2022/03/05 03:27:02;;;;;;;52.45;31.98;;;5.20;99.90;;;;;;5075717;28;20024;-50
2022/03/05 03:29:27;;;;;;;51.13;33.95;;;5.30;99.90;;;;;;5073854;28;20074;-50
2022/03/05 03:31:53;;;;;;;53.33;34.10;;;5.30;99.90;;;;;;5075691;28;20075;-48
2022/03/05 03:34:19;;;;;;;58.00;37.13;;;5.40;99.90;;;;;;5075876;28;20032;-53
2022/03/05 03:36:45;;;;;;;56.88;36.05;;;5.00;99.90;;;;;;5075341;28;20062;-52
2022/03/05 03:39:11;;;;;;;54.60;36.22;;;4.90;99.90;;;;;;5075602;28;20135;-52
2022/03/05 03:41:37;;;;;;;59.50;35.88;;;4.80;99.90;;;;;;5075592;28;20100;-52
2022/03/05 03:44:03;;;;;;;62.78;38.42;;;4.80;99.90;;;;;;5075476;28;20036;-52
2022/03/05 03:46:29;;;;;;;52.80;34.33;;;4.80;99.90;;;;;;5072643;28;20043;-50
2022/03/05 03:48:55;;;;;;;59.03;34.72;;;4.90;99.90;;;;;;5075418;28;20028;-53
2022/03/05 03:51:22;;;;;;;56.13;34.63;;;4.90;99.90;;;;;;5075293;28;20020;-48
2022/03/05 03:53:47;;;;;;;57.90;34.85;;;5.00;99.90;;;;;;5075058;28;20108;-48
2022/03/05 03:56:13;;;;;;;62.55;35.35;;;4.90;99.90;;;;;;5072876;28;20132;-50
2022/03/05 03:58:40;;;;;;;55.72;36.55;;;5.00;99.90;;;;;;5072892;28;20032;-52
2022/03/05 04:01:06;;;;;;;52.35;36.00;;;5.10;99.90;;;;;;5022931;28;20036;-50
2022/03/05 04:03:31;;;;;;;57.10;35.72;;;5.10;99.90;;;;;;5056333;28;20040;-50
2022/03/05 04:05:57;;;;;;;57.40;34.63;;;5.10;99.90;;;;;;5072962;28;20041;-51
2022/03/05 04:11:20;;;;;;;60.65;38.90;;;5.20;99.90;;;;;;5058880;28;20082;-48
2022/03/05 04:13:47;;;;;;;58.95;36.40;;;5.20;99.90;;;;;;5072429;28;20035;-51
2022/03/05 04:16:13;;;;;;;60.53;37.17;;;5.20;99.90;;;;;;5072531;28;20430;-48
2022/03/05 04:18:40;;;;;;;72.38;36.08;;;5.20;99.90;;;;;;5055802;28;20040;-53
2022/03/05 04:21:08;;;;;;;61.47;37.03;;;5.30;99.90;;;;;;5072624;28;20043;-50
2022/03/05 04:23:34;;;;;;;67.30;39.60;;;5.30;99.90;;;;;;5072381;28;20037;-49
2022/03/05 04:26:00;;;;;;;61.25;36.80;;;5.20;99.90;;;;;;5072315;28;20463;-48
2022/03/05 04:28:26;;;;;;;64.13;40.15;;;5.20;99.90;;;;;;5074718;28;20028;-49
2022/03/05 04:30:52;;;;;;;75.45;42.70;;;5.20;99.90;;;;;;5074466;28;20033;-50
2022/03/05 04:33:18;;;;;;;67.93;39.90;;;5.30;99.90;;;;;;5074477;28;20024;-51
2022/03/05 04:35:44;;;;;;;65.03;39.28;;;5.30;99.90;;;;;;5072261;28;20131;-51
2022/03/05 04:38:09;;;;;;;63.92;36.78;;;5.30;99.90;;;;;;5072482;28;20047;-50
2022/03/05 04:40:35;;;;;;;69.57;39.05;;;5.30;99.90;;;;;;5074109;28;20021;-51
2022/03/05 04:43:02;;;;;;;64.18;37.67;;;5.20;99.90;;;;;;5074504;28;20028;-51
2022/03/05 04:45:28;;;;;;;59.42;36.85;;;5.20;99.90;;;;;;5074228;28;20479;-49
2022/03/05 04:47:54;;;;;;;71.35;40.53;;;5.10;99.90;;;;;;5074210;28;20078;-49
2022/03/05 04:50:20;;;;;;;66.43;38.58;;;5.10;99.90;;;;;;5074466;28;20102;-52
2022/03/05 04:52:46;;;;;;;70.30;40.88;;;5.10;99.90;;;;;;5074012;28;20028;-51
2022/03/05 04:55:12;;;;;;;68.63;42.45;;;5.10;99.90;;;;;;5074028;28;20503;-52
2022/03/05 04:57:37;;;;;;;73.63;45.15;;;5.10;99.90;;;;;;5073148;28;20020;-53
2022/03/05 05:00:06;;;;;;;89.85;53.63;;;5.00;99.90;;;;;;5073686;28;20056;-53
2022/03/05 05:02:32;;;;;;;64.13;40.53;;;5.00;99.90;;;;;;5074006;28;20059;-52
2022/03/05 05:04:57;;;;;;;57.13;36.25;;;4.70;99.90;;;;;;5073684;28;20037;-53
2022/03/05 05:07:23;;;;;;;61.63;36.92;;;4.60;99.90;;;;;;5073775;28;20020;-51
2022/03/05 05:09:49;;;;;;;59.78;36.58;;;4.60;99.90;;;;;;5073727;28;20040;-51
2022/03/05 05:12:15;;;;;;;58.08;35.85;;;4.50;99.90;;;;;;5088820;28;20041;-51
2022/03/05 05:14:40;;;;;;;59.30;36.78;;;4.50;99.90;;;;;;5073542;28;20024;-51
2022/03/05 05:17:06;;;;;;;57.25;35.67;;;4.60;99.90;;;;;;5088973;28;20036;-50
2022/03/05 05:19:32;;;;;;;54.30;35.25;;;4.60;99.90;;;;;;5073573;28;20468;-48
2022/03/05 05:22:02;;;;;;;55.55;34.25;;;4.50;99.90;;;;;;5088852;28;20044;-49
2022/03/05 05:24:30;;;;;;;57.78;32.10;;;4.50;99.90;;;;;;5073624;28;20020;-48
2022/03/05 05:26:57;;;;;;;49.38;32.10;;;4.30;99.90;;;;;;5088583;28;20033;-51
2022/03/05 05:29:23;;;;;;;62.13;38.22;;;4.10;99.90;;;;;;5075614;28;20047;-49
2022/03/05 05:31:50;;;;;;;61.50;38.08;;;4.10;99.90;;;;;;5076571;28;20032;-50
2022/03/05 05:34:16;;;;;;;54.85;34.58;;;4.00;99.90;;;;;;5076627;28;20028;-50
2022/03/05 05:36:42;;;;;;;58.70;35.17;;;4.00;99.90;;;;;;5090982;28;20132;-51
2022/03/05 05:39:09;;;;;;;68.93;39.33;;;4.20;99.90;;;;;;5074595;28;20072;-51
2022/03/05 05:41:36;;;;;;;62.67;36.08;;;4.40;99.90;;;;;;5089010;28;20032;-51
2022/03/05 05:44:04;;;;;;;54.53;32.65;;;4.50;99.90;;;;;;5073237;28;20085;-49
2022/03/05 05:46:30;;;;;;;53.45;33.08;;;4.40;99.90;;;;;;5073270;28;20025;-49
2022/03/05 05:48:57;;;;;;;54.78;33.00;;;4.30;99.90;;;;;;5073103;28;20021;-51
2022/03/05 05:51:24;;;;;;;54.85;34.28;;;4.10;99.90;;;;;;5073359;28;20479;-51
2022/03/05 05:53:50;;;;;;;58.00;37.20;;;4.10;99.90;;;;;;5073172;28;20032;-51
2022/03/05 05:56:16;;;;;;;63.75;40.65;;;4.20;99.90;;;;;;5073037;28;20032;-50
2022/03/05 05:58:42;;;;;;;67.93;40.05;;;4.30;99.90;;;;;;5071481;28;20040;-51
2022/03/05 06:01:08;;;;;;;61.28;37.15;;;4.30;99.90;;;;;;5073156;28;20036;-49
2022/03/05 06:03:33;;;;;;;78.45;45.67;;;4.60;99.90;;;;;;5088192;28;20039;-49
2022/03/05 06:06:00;;;;;;;88.72;50.58;;;4.70;99.90;;;;;;5072506;28;20431;-48
2022/03/05 06:08:26;;;;;;;79.13;45.83;;;4.80;99.90;;;;;;5072970;28;20392;-49
2022/03/05 06:10:54;;;;;;;68.78;41.42;;;4.90;99.90;;;;;;5076515;28;20480;-51
2022/03/05 06:13:20;;;;;;;73.47;44.30;;;5.00;99.90;;;;;;5075266;28;20040;-49
2022/03/05 06:15:46;;;;;;;69.00;42.50;;;5.20;99.90;;;;;;5076928;28;20106;-48
2022/03/05 06:18:12;;;;;;;72.47;42.38;;;5.50;99.90;;;;;;5077060;28;20472;-50
2022/03/05 06:20:38;;;;;;;67.57;39.58;;;5.50;99.90;;;;;;5076196;28;20025;-49
2022/03/05 06:23:04;;;;;;;63.00;37.58;;;5.40;99.90;;;;;;5072009;28;20028;-51
2022/03/05 06:25:31;;;;;;;68.25;39.13;;;5.60;99.90;;;;;;5070034;28;20021;-51
2022/03/05 06:27:56;;;;;;;59.53;37.75;;;5.70;99.90;;;;;;5078097;28;20080;-48
2022/03/05 06:30:22;;;;;;;50.30;32.45;;;5.90;99.90;;;;;;5065585;28;20054;-50
2022/03/05 06:32:49;;;;;;;39.20;25.63;;;6.10;99.90;;;;;;5067110;28;20021;-50
2022/03/05 06:35:15;;;;;;;36.45;24.23;;;6.40;99.90;;;;;;5065582;28;20393;-48
2022/03/05 06:37:41;;;;;;;32.67;23.10;;;6.50;99.30;;;;;;5065893;28;20095;-48
2022/03/05 06:40:10;;;;;;;35.13;23.83;;;6.70;99.80;;;;;;5081717;28;20144;-49
2022/03/05 06:42:37;;;;;;;39.90;26.10;;;6.30;99.90;;;;;;5063594;28;20041;-51
2022/03/05 06:45:04;;;;;;;47.58;29.15;;;6.60;99.90;;;;;;5065509;28;20036;-50
2022/03/05 06:47:30;;;;;;;48.03;30.40;;;6.90;98.90;;;;;;5065030;28;20041;-50
2022/03/05 06:49:57;;;;;;;48.17;32.13;;;6.80;99.50;;;;;;5063306;28;20378;-51
2022/03/05 06:52:23;;;;;;;42.53;27.33;;;7.20;99.00;;;;;;5065384;28;20031;-50
2022/03/05 06:54:49;;;;;;;34.85;22.85;;;7.30;98.20;;;;;;5066652;28;20115;-51
2022/03/05 06:57:15;;;;;;;40.38;24.17;;;7.10;97.90;;;;;;5064836;28;20434;-49
2022/03/05 06:59:41;;;;;;;38.10;24.38;;;;;;;;;;5066934;28;20028;-50
2022/03/05 07:02:07;;;;;;;40.05;23.38;;;;;;;;;;5074806;28;20021;-51
2022/03/05 07:04:33;;;;;;;35.20;22.73;;;;;;;;;;5075562;28;20056;-49
2022/03/05 07:06:59;;;;;;;33.28;22.20;;;9.80;98.30;;;;;;5076201;28;20036;-49
2022/03/05 07:09:25;;;;;;;34.63;23.65;;;9.60;99.90;;;;;;5076129;28;20024;-50
2022/03/05 07:11:51;;;;;;;33.80;22.45;;;9.60;99.90;;;;;;5076238;28;20376;-51
2022/03/05 07:14:17;;;;;;;40.00;25.23;;;9.90;98.50;;;;;;5075947;28;20021;-51
2022/03/05 07:16:43;;;;;;;35.28;24.33;;;9.80;97.00;;;;;;5075847;28;20032;-51
2022/03/05 07:19:08;;;;;;;39.55;24.85;;;10.10;96.90;;;;;;5075724;28;20056;-52
2022/03/05 07:21:34;;;;;;;32.03;21.17;;;10.00;96.60;;;;;;5072984;28;20033;-48
2022/03/05 07:24:00;;;;;;;34.78;21.80;;;9.60;96.40;;;;;;5076001;28;20036;-49
2022/03/05 07:26:26;;;;;;;30.42;19.75;;;9.20;96.50;;;;;;5074010;28;20064;-51
2022/03/05 07:28:52;;;;;;;32.83;20.75;;;9.20;97.00;;;;;;5075796;28;20472;-50
2022/03/05 07:31:18;;;;;;;32.40;21.17;;;9.40;96.70;;;;;;5075804;28;20457;-51
2022/03/05 07:33:43;;;;;;;30.17;20.63;;;9.50;97.20;;;;;;5075870;28;20032;-50
2022/03/05 07:36:09;;;;;;;30.75;19.98;;;;;;;;;;5075350;28;20082;-49
2022/03/05 07:38:36;;;;;;;32.00;21.50;;;11.00;99.90;;;;;;5075381;28;20102;-51
2022/03/05 07:41:02;;;;;;;29.92;20.95;;;;;;;;;;5056981;28;20120;-51
2022/03/05 07:43:28;;;;;;;28.88;19.88;;;;;;;;;;5075615;28;20032;-49
2022/03/05 07:45:54;;;;;;;26.75;18.65;;;11.70;99.90;;;;;;5075750;28;20443;-49
2022/03/05 07:48:21;;;;;;;26.38;18.40;;;12.00;92.90;;;;;;5075415;28;20055;-50
2022/03/05 07:50:48;;;;;;;26.33;18.75;;;12.30;95.70;;;;;;5075275;28;20033;-48
2022/03/05 07:53:14;;;;;;;28.95;20.67;;;12.30;94.90;;;;;;5074785;28;20120;-51
2022/03/05 07:55:40;;;;;;;27.27;18.05;;;12.40;93.30;;;;;;5075192;28;20123;-50
2022/03/05 07:58:06;;;;;;;27.73;18.60;;;12.10;92.70;;;;;;5075320;28;20434;-50
2022/03/05 08:00:32;;;;;;;27.08;18.83;;;12.00;92.40;;;;;;5073025;28;20032;-49
2022/03/05 08:02:58;;;;;;;24.83;18.38;;;12.40;92.90;;;;;;5072990;28;20064;-50
2022/03/05 08:05:24;;;;;;;25.45;17.02;;;12.70;91.40;;;;;;5069055;28;20385;-50
2022/03/05 08:07:50;;;;;;;23.98;18.15;;;12.60;91.90;;;;;;5061146;28;20424;-49
2022/03/05 08:10:16;;;;;;;26.38;18.40;;;;;;;;;;5059927;28;20043;-48
2022/03/05 08:12:42;;;;;;;26.02;17.38;;;;;;;;;;5052694;28;20025;-48
2022/03/05 08:15:09;;;;;;;25.23;18.08;;;;;;;;;;5052507;28;20095;-48
2022/03/05 08:17:35;;;;;;;26.95;19.30;;;;;;;;;;5003640;28;20453;-49
2022/03/05 08:20:01;;;;;;;26.58;18.13;;;;;;;;;;5055925;28;20032;-49
2022/03/05 08:22:27;;;;;;;24.70;18.05;;;;;;;;;;5056395;28;20041;-50
2022/03/05 08:24:54;;;;;;;27.08;19.05;;;;;;;;;;5011060;28;20105;-51
2022/03/05 08:27:21;;;;;;;24.27;17.92;;;;;;;;;;5072448;28;20029;-48
2022/03/05 08:29:47;;;;;;;24.58;18.17;;;;;;;;;;5031199;28;20076;-51
2022/03/05 08:32:13;;;;;;;24.05;15.38;;;;;;;;;;5073716;28;20480;-49
2022/03/05 08:34:39;;;;;;;28.52;18.27;;;;;;;;;;5038446;28;20037;-48
2022/03/05 08:37:06;;;;;;;24.00;16.88;;;;;;;;;;5065187;28;20037;-48
2022/03/05 08:39:32;;;;;;;25.80;16.50;;;;;;;;;;5054341;28;20045;-50
2022/03/05 08:41:58;;;;;;;23.88;17.90;;;;;;;;;;5054407;28;20132;-52
2022/03/05 08:44:24;;;;;;;34.83;23.40;;;;;;;;;;5054312;28;20065;-50
2022/03/05 08:46:50;;;;;;;27.88;18.13;;;;;;;;;;5054432;28;20029;-50
2022/03/05 08:49:17;;;;;;;23.60;17.27;;;15.50;78.10;;;;;;5018940;28;20053;-50
2022/03/05 08:51:44;;;;;;;24.63;18.38;;;14.60;77.40;;;;;;5052466;28;20036;-50
2022/03/05 08:54:09;;;;;;;24.77;18.52;;;15.20;78.70;;;;;;5054194;28;20128;-50
2022/03/05 08:56:35;;;;;;;25.98;18.10;;;14.50;78.00;;;;;;5054234;28;20124;-49
2022/03/05 08:59:01;;;;;;;24.45;17.38;;;14.70;78.30;;;;;;5053873;28;20025;-51
2022/03/05 09:01:27;;;;;;;25.48;18.30;;;;;;;;;;5018854;28;20033;-50
2022/03/05 09:03:53;;;;;;;25.13;18.33;;;15.80;95.90;;;;;;5054196;28;20029;-48
2022/03/05 09:06:18;;;;;;;24.70;17.70;;;15.80;83.10;;;;;;5052007;28;20045;-51
2022/03/05 09:08:44;;;;;;;25.45;18.40;;;16.20;76.60;;;;;;5052088;28;20044;-49
2022/03/05 09:11:10;;;;;;;23.45;15.18;;;16.40;76.30;;;;;;5051706;28;20037;-50
2022/03/05 09:13:36;;;;;;;22.58;16.42;;;14.70;75.50;;;;;;5052162;28;20033;-49
2022/03/05 09:16:01;;;;;;;23.65;19.05;;;14.40;76.30;;;;;;5035101;28;20045;-49
2022/03/05 09:18:28;;;;;;;25.85;18.75;;;14.80;77.20;;;;;;5051733;28;20469;-49
2022/03/05 09:20:54;;;;;;;21.15;16.00;;;15.10;76.50;;;;;;5051827;28;20490;-50
2022/03/05 09:23:20;;;;;;;21.25;16.77;;;14.20;76.80;;;;;;5052922;28;20136;-51
2022/03/05 09:25:45;;;;;;;21.88;17.40;;;15.40;98.10;;;;;;5068166;28;20389;-52
2022/03/05 09:28:11;;;;;;;23.92;16.75;;;14.50;77.70;;;;;;5063130;28;20020;-49
2022/03/05 09:30:37;;;;;;;21.55;17.27;;;14.20;77.40;;;;;;5069959;28;20040;-50
2022/03/05 09:33:03;;;;;;;23.67;17.33;;;14.60;79.00;;;;;;5068576;28;20046;-50
2022/03/05 09:35:29;;;;;;;24.42;16.30;;;14.20;76.80;;;;;;5073260;28;20029;-49
2022/03/05 09:37:55;;;;;;;23.63;18.10;;;14.00;76.40;;;;;;5071418;28;20078;-49
2022/03/05 09:40:21;;;;;;;24.77;17.30;;;;;;;;;;5071792;28;20111;-51
2022/03/05 09:42:47;;;;;;;22.50;15.75;;;;;;;;;;5053417;28;20032;-50
2022/03/05 09:45:15;;;;;;;23.92;17.48;;;;;;;;;;5058751;28;20529;-51
2022/03/05 09:47:41;;;;;;;24.05;16.98;;;;;;;;;;5073186;28;20476;-49
2022/03/05 09:50:09;;;;;;;24.98;17.83;;;15.30;92.20;;;;;;5073197;28;20064;-50
2022/03/05 09:52:34;;;;;;;34.10;20.08;;;15.50;78.60;;;;;;5017508;28;20037;-52
2022/03/05 09:55:01;;;;;;;24.30;18.58;;;15.30;80.20;;;;;;5071701;28;20036;-51
2022/03/05 09:57:27;;;;;;;27.35;19.58;;;16.00;75.10;;;;;;5073002;28;20043;-51
2022/03/05 09:59:53;;;;;;;28.30;19.98;;;;;;;;;;5055998;28;20372;-51
2022/03/05 10:02:19;;;;;;;24.38;17.67;;;16.80;87.10;;;;;;5053544;28;20037;-51
2022/03/05 10:04:45;;;;;;;21.73;17.45;;;15.90;95.80;;;;;;5070693;28;20467;-50
2022/03/05 10:07:16;;;;;;;21.98;17.02;;;14.70;75.40;;;;;;5088163;28;20131;-50
2022/03/05 10:09:47;;;;;;;24.25;19.10;;;14.20;76.10;;;;;;5072728;28;20039;-50
2022/03/05 10:12:31;;;;;;;24.60;18.70;;;15.30;76.40;;;;;;5072715;28;20059;-51
2022/03/05 10:15:10;;;;;;;23.85;17.58;;;14.80;74.90;;;;;;5073112;28;20036;-49
2022/03/05 10:17:49;;;;;;;23.20;17.20;;;15.10;75.50;;;;;;5083237;28;20037;-49
2022/03/05 10:20:15;;;;;;;22.70;17.70;;;14.40;75.70;;;;;;5052988;28;20403;-49
2022/03/05 10:22:56;;;;;;;23.17;17.92;;;14.30;76.50;;;;;;5063335;28;20033;-49
2022/03/05 10:25:38;;;;;;;27.55;18.77;;;14.40;76.40;;;;;;5068946;28;20045;-51
2022/03/05 10:28:08;;;;;;;23.40;17.80;;;15.00;76.10;;;;;;5062389;28;20021;-51
2022/03/05 10:30:36;;;;;;;24.00;17.60;;;15.10;76.10;;;;;;5058962;28;20044;-50
2022/03/05 10:33:03;;;;;;;28.52;21.52;;;14.80;74.20;;;;;;5060147;28;20040;-50
2022/03/05 10:35:29;;;;;;;23.85;18.83;;;;;;;;;;5060805;28;20088;-50
2022/03/05 10:37:55;;;;;;;24.13;18.48;;;14.00;75.80;;;;;;5058773;28;20028;-49
2022/03/05 10:40:31;;;;;;;25.10;17.90;;;14.20;75.70;;;;;;5060390;28;20037;-49
2022/03/05 10:43:03;;;;;;;23.83;18.45;;;13.70;75.90;;;;;;5067570;28;20043;-51
2022/03/05 10:45:29;;;;;;;24.02;18.55;;;13.80;76.60;;;;;;5063276;28;20051;-50
2022/03/05 10:47:57;;;;;;;26.65;19.50;;;14.00;77.00;;;;;;5056907;28;20484;-50
2022/03/05 10:50:25;;;;;;;21.42;17.38;;;14.20;77.20;;;;;;5070635;28;20067;-50
2022/03/05 10:53:02;;;;;;;20.70;16.90;;;14.20;76.80;;;;;;5063903;28;20040;-49
2022/03/05 10:55:29;;;;;;;21.92;17.70;;;;;;;;;;5021491;28;20112;-49
2022/03/05 10:58:13;;;;;;;23.10;17.52;;;;;;;;;;5066672;28;20033;-50
2022/03/05 11:00:40;;;;;;;25.58;17.50;;;;;;;;;;5074406;28;20116;-49
2022/03/05 11:03:06;;;;;;;24.25;18.45;;;13.80;76.90;;;;;;5075006;28;20553;-51
2022/03/05 11:05:34;;;;;;;25.45;20.45;;;14.50;78.00;;;;;;5091169;28;20396;-50
2022/03/05 11:08:00;;;;;;;27.92;18.75;;;14.70;77.30;;;;;;5080560;28;20477;-49
2022/03/05 11:10:30;;;;;;;31.92;21.60;;;;;;;;;;5070849;28;20037;-51
2022/03/05 11:12:59;;;;;;;29.33;21.52;;;;;;;;;;5059013;28;20068;-51
2022/03/05 11:15:26;;;;;;;28.52;21.05;;;;;;;;;;5075833;28;20035;-50
2022/03/05 11:17:52;;;;;;;25.17;19.55;;;;;;;;;;5075819;28;20154;-51
2022/03/05 11:20:18;;;;;;;27.83;19.60;;;;;;;;;;5076039;28;20464;-49
2022/03/05 11:22:49;;;;;;;34.78;23.20;;;14.90;86.60;;;;;;5090684;28;20403;-51
2022/03/05 11:25:24;;;;;;;31.77;23.48;;;15.60;91.00;;;;;;5075702;28;20040;-51
2022/03/05 11:28:00;;;;;;;27.67;20.27;;;15.60;74.60;;;;;;5075607;28;20072;-51
2022/03/05 11:30:28;;;;;;;25.23;18.60;;;15.90;73.20;;;;;;5075603;28;20495;-49
2022/03/05 11:32:54;;;;;;;24.50;19.95;;;15.50;74.00;;;;;;5073428;28;20117;-51
2022/03/05 11:35:25;;;;;;;23.92;19.13;;;15.40;73.60;;;;;;5073358;28;20055;-49
2022/03/05 11:37:52;;;;;;;25.40;19.23;;;15.30;74.70;;;;;;5073584;28;20049;-50
2022/03/05 11:40:35;;;;;;;25.67;19.80;;;15.00;74.00;;;;;;5040091;28;20273;-49
2022/03/05 11:43:19;;;;;;;24.95;19.55;;;15.60;75.40;;;;;;5073482;28;20033;-49
2022/03/05 11:46:04;;;;;;;29.25;22.20;;;16.20;74.30;;;;;;5039847;28;20033;-51
2022/03/05 11:48:33;;;;;;;27.17;20.63;;;16.00;74.00;;;;;;5056245;28;20044;-50
2022/03/05 11:51:01;;;;;;;28.75;21.55;;;15.40;74.40;;;;;;5039689;28;20032;-50
2022/03/05 11:53:27;;;;;;;32.10;20.80;;;16.40;73.90;;;;;;5039820;28;20040;-49
2022/03/05 11:55:53;;;;;;;32.05;21.80;;;16.10;74.10;;;;;;5039648;28;20040;-51
2022/03/05 11:58:27;;;;;;;29.92;22.58;;;16.60;73.00;;;;;;5039839;28;20036;-50
2022/03/05 12:00:54;;;;;;;31.70;23.90;;;15.60;72.60;;;;;;5039582;28;20041;-49
2022/03/05 12:03:42;;;;;;;26.58;19.15;;;15.70;73.80;;;;;;5058994;28;20044;-49
2022/03/05 12:06:11;;;;;;;24.23;18.92;;;14.40;74.00;;;;;;5075017;28;20465;-49
2022/03/05 12:08:41;;;;;;;26.25;19.20;;;13.50;75.10;;;;;;5074471;28;20392;-49
2022/03/05 12:11:17;;;;;;;27.42;20.83;;;;;;;;;;5074934;28;20037;-50
2022/03/05 12:13:44;;;;;;;28.70;20.42;;;;;;;;;;5074837;28;20498;-51
2022/03/05 12:16:14;;;;;;;22.98;19.40;;;;;;;;;;5074686;28;20212;-49
2022/03/05 12:18:41;;;;;;;21.27;16.42;;;;;;;;;;5074737;28;20369;-49
2022/03/05 12:21:07;;;;;;;22.30;18.20;;;;;;;;;;5074908;28;20082;-49
2022/03/05 12:23:33;;;;;;;24.98;18.52;;;;;;;;;;5072924;28;20047;-49
2022/03/05 12:26:02;;;;;;;24.00;17.23;;;;;;;;;;5074550;28;20048;-51
2022/03/05 12:28:34;;;;;;;23.98;18.83;;;;;;;;;;5074708;28;20029;-49
2022/03/05 12:31:00;;;;;;;25.08;18.70;;;15.30;77.80;;;;;;5074604;28;20031;-50
2022/03/05 12:33:26;;;;;;;25.83;19.05;;;14.70;78.10;;;;;;5074557;28;20028;-49
2022/03/05 12:35:52;;;;;;;27.17;19.02;;;14.90;77.80;;;;;;5074310;28;20046;-49
2022/03/05 12:38:22;;;;;;;20.92;16.77;;;15.30;79.50;;;;;;5089357;28;20403;-49
2022/03/05 12:40:48;;;;;;;24.60;19.35;;;15.20;76.00;;;;;;5074711;28;20032;-50
2022/03/05 12:43:14;;;;;;;21.65;16.45;;;14.60;76.40;;;;;;5074319;28;20477;-51
2022/03/05 12:45:44;;;;;;;20.73;16.02;;;14.70;77.30;;;;;;5038941;28;20043;-48
2022/03/05 12:48:18;;;;;;;22.52;18.25;;;14.80;76.80;;;;;;5074487;28;20060;-48
2022/03/05 12:50:47;;;;;;;23.52;17.90;;;15.30;76.00;;;;;;5074139;28;20051;-51